createdAt,value
2022-09-20T08:48:49.511Z,95.90
2022-09-20T08:51:22.738Z,96.20
2022-09-20T08:53:53.967Z,94.70
2022-09-20T08:56:22.655Z,93.30
2022-09-20T08:58:49.384Z,94.10
2022-09-20T09:01:24.611Z,93.60
2022-09-20T09:03:53.033Z,92.00
2022-09-20T09:06:21.919Z,92.40
2022-09-20T09:08:53.916Z,92.90
2022-09-20T09:11:23.334Z,92.30
2022-09-20T09:13:55.560Z,92.20
2022-09-20T09:16:30.203Z,91.90
2022-09-20T09:19:44.409Z,92.20
2022-09-20T09:22:11.952Z,92.30
2022-09-20T09:24:38.585Z,92.00
2022-09-20T09:27:25.656Z,90.10
2022-09-20T09:29:55.053Z,88.30
2022-09-20T09:32:32.947Z,89.80
2022-09-20T09:35:28.732Z,87.90
2022-09-20T09:38:01.337Z,90.00
2022-09-20T09:40:32.416Z,89.60
2022-09-20T09:43:01.461Z,87.90
2022-09-20T09:45:32.035Z,88.30
2022-09-20T09:48:01.480Z,83.50
2022-09-20T09:50:31.720Z,85.80
2022-09-20T09:53:08.973Z,85.80
2022-09-20T09:55:55.925Z,83.70
2022-09-20T09:58:52.114Z,80.60
2022-09-20T10:01:40.514Z,80.50
2022-09-20T10:04:27.108Z,82.20
2022-09-20T10:07:14.318Z,78.20
2022-09-20T10:10:04.224Z,79.10
2022-09-20T10:12:54.649Z,76.00
2022-09-20T10:15:43.362Z,79.10
2022-09-20T10:18:22.713Z,80.90
2022-09-20T10:21:07.842Z,81.70
2022-09-20T10:24:08.300Z,83.40
2022-09-20T10:26:50.647Z,85.20
2022-09-20T10:29:47.636Z,84.50
2022-09-20T10:32:27.378Z,86.40
2022-09-20T10:35:14.120Z,85.30
2022-09-20T10:38:05.148Z,82.70
2022-09-20T10:40:56.445Z,86.10
2022-09-20T10:43:31.892Z,79.00
2022-09-20T10:49:13.832Z,77.80
2022-09-20T10:51:54.907Z,75.30
2022-09-20T10:54:28.870Z,76.10
2022-09-20T10:57:28.450Z,77.00
2022-09-20T11:00:04.957Z,73.80
2022-09-20T11:03:19.021Z,73.40
2022-09-20T11:05:57.617Z,74.90
2022-09-20T11:08:29.931Z,73.30
2022-09-20T11:11:09.319Z,72.20
2022-09-20T11:14:16.254Z,72.20
2022-09-20T11:17:00.458Z,70.00
2022-09-20T11:19:40.493Z,69.00
2022-09-20T11:22:12.584Z,70.70
2022-09-20T11:25:02.920Z,69.60
2022-09-20T11:27:46.904Z,67.90
2022-09-20T11:30:18.721Z,69.40
2022-09-20T11:33:12.918Z,68.10
2022-09-20T11:36:06.598Z,68.50
2022-09-20T11:39:05.818Z,67.80
2022-09-20T11:41:33.209Z,69.00
2022-09-20T11:44:06.995Z,70.80
2022-09-20T11:46:40.180Z,68.20
2022-09-20T11:49:49.654Z,67.90
2022-09-20T11:52:46.166Z,67.90
2022-09-20T11:55:23.626Z,66.20
2022-09-20T11:58:02.206Z,65.70
2022-09-20T12:00:32.190Z,64.50
2022-09-20T12:03:00.136Z,66.10
2022-09-20T12:05:41.518Z,65.50
2022-09-20T12:08:21.994Z,64.60
2022-09-20T12:11:04.397Z,65.70
2022-09-20T12:13:35.325Z,65.40
2022-09-20T12:16:16.697Z,64.80
2022-09-20T12:18:53.846Z,64.10
2022-09-20T12:21:21.967Z,65.30
2022-09-20T12:23:57.580Z,64.20
2022-09-20T12:26:27.232Z,62.60
2022-09-20T12:28:59.018Z,63.20
2022-09-20T12:31:26.279Z,62.30
2022-09-20T12:34:02.099Z,63.30
2022-09-20T12:36:32.304Z,62.70
2022-09-20T12:39:17.750Z,63.40
2022-09-20T12:41:56.053Z,59.50
2022-09-20T12:44:31.579Z,58.00
2022-09-20T12:47:09.968Z,55.80
2022-09-20T12:49:59.706Z,57.60
2022-09-20T12:52:53.299Z,57.20
2022-09-20T12:55:52.912Z,58.20
2022-09-20T12:58:24.465Z,57.20
2022-09-20T13:01:14.259Z,59.10
2022-09-20T13:03:44.121Z,60.00
2022-09-20T13:06:19.863Z,60.40
2022-09-20T13:09:01.650Z,61.10
2022-09-20T13:11:44.360Z,60.80
2022-09-20T13:14:31.998Z,62.20
2022-09-20T13:17:17.136Z,61.10
2022-09-20T13:19:49.274Z,61.10
2022-09-20T13:22:31.248Z,61.10
2022-09-20T13:25:00.818Z,60.30
2022-09-20T13:27:45.208Z,61.10
2022-09-20T13:30:15.138Z,62.00
2022-09-20T13:32:42.269Z,63.10
2022-09-20T13:35:31.797Z,62.80
2022-09-20T13:38:09.828Z,63.90
2022-09-20T13:40:42.440Z,64.40
2022-09-20T13:43:30.801Z,65.40
2022-09-20T13:46:17.746Z,65.00
2022-09-20T13:49:08.269Z,65.10
2022-09-20T13:51:35.737Z,63.90
2022-09-20T13:54:27.422Z,64.50
2022-09-20T13:57:00.038Z,62.30
2022-09-20T13:59:40.230Z,61.10
2022-09-20T14:02:30.765Z,61.60
2022-09-20T14:05:01.250Z,60.80
2022-09-20T14:07:29.505Z,64.00
2022-09-20T14:09:56.741Z,62.30
2022-09-20T14:12:25.107Z,63.60
2022-09-20T14:14:52.379Z,63.30
2022-09-20T14:17:21.691Z,65.40
2022-09-20T14:19:51.458Z,64.80
2022-09-20T14:22:27.817Z,65.80
2022-09-20T14:25:21.923Z,64.10
2022-09-20T14:27:48.648Z,62.80
2022-09-20T14:30:30.990Z,62.60
2022-09-20T14:32:59.097Z,62.90
2022-09-20T14:35:26.966Z,64.20
2022-09-20T14:38:06.719Z,62.80
2022-09-20T14:40:45.365Z,64.30
2022-09-20T14:43:33.955Z,64.80
2022-09-20T14:46:08.707Z,63.90
2022-09-20T14:48:42.812Z,63.00
2022-09-20T14:51:10.005Z,64.00
2022-09-20T14:53:38.207Z,63.90
2022-09-20T14:56:04.886Z,63.90
2022-09-20T14:58:31.885Z,64.20
2022-09-20T15:01:06.248Z,63.70
2022-09-20T15:03:41.956Z,63.40
2022-09-20T15:06:13.624Z,63.20
2022-09-20T15:08:45.456Z,62.90
2022-09-20T15:11:17.444Z,61.10
2022-09-20T15:13:44.265Z,60.10
2022-09-20T15:16:17.223Z,59.70
2022-09-20T15:18:44.764Z,61.60
2022-09-20T15:21:11.454Z,63.20
2022-09-20T15:23:39.257Z,62.50
2022-09-20T15:26:07.200Z,63.90
2022-09-20T15:28:34.491Z,63.60
2022-09-20T15:31:01.161Z,62.50
2022-09-20T15:33:31.469Z,61.80
2022-09-20T15:35:58.347Z,61.50
2022-09-20T15:38:26.950Z,61.30
2022-09-20T15:40:53.962Z,61.40
2022-09-20T15:43:26.689Z,61.80
2022-09-20T15:45:56.124Z,62.40
2022-09-20T15:48:25.619Z,62.60
2022-09-20T15:51:07.134Z,63.80
2022-09-20T15:53:39.960Z,63.40
2022-09-20T15:56:21.216Z,63.80
2022-09-20T15:59:01.950Z,61.70
2022-09-20T16:01:32.454Z,63.40
2022-09-20T16:03:59.987Z,63.70
2022-09-20T16:06:26.796Z,62.80
2022-09-20T16:08:53.700Z,63.10
2022-09-20T16:11:22.949Z,63.40
2022-09-20T16:13:54.560Z,63.30
2022-09-20T16:16:21.611Z,63.40
2022-09-20T16:19:07.002Z,63.90
2022-09-20T16:21:33.817Z,64.10
2022-09-20T16:24:00.640Z,65.30
2022-09-20T16:26:29.038Z,65.00
2022-09-20T16:28:55.763Z,64.90
2022-09-20T16:31:40.294Z,64.80
2022-09-20T16:34:20.308Z,65.80
2022-09-20T16:36:53.749Z,65.40
2022-09-20T16:39:27.490Z,65.90
2022-09-20T16:42:05.568Z,66.00
2022-09-20T16:44:36.805Z,67.20
2022-09-20T16:47:07.521Z,68.40
2022-09-20T16:49:34.858Z,67.80
2022-09-20T16:52:01.820Z,69.00
2022-09-20T16:54:31.756Z,68.80
2022-09-20T16:56:59.030Z,69.60
2022-09-20T16:59:25.745Z,70.20
2022-09-20T17:01:52.699Z,71.50
2022-09-20T17:04:20.921Z,70.60
2022-09-20T17:06:49.041Z,72.10
2022-09-20T17:09:16.485Z,72.30
2022-09-20T17:11:47.086Z,73.40
2022-09-20T17:14:16.361Z,75.60
2022-09-20T17:16:47.452Z,74.60
2022-09-20T17:19:16.491Z,76.00
2022-09-20T17:21:46.155Z,76.70
2022-09-20T17:24:14.113Z,76.10
2022-09-20T17:26:44.569Z,77.30
2022-09-20T17:29:15.434Z,77.90
2022-09-20T17:31:48.763Z,79.00
2022-09-20T17:34:21.393Z,79.30
2022-09-20T17:36:49.006Z,79.40
2022-09-20T17:39:16.283Z,79.40
2022-09-20T17:41:45.646Z,79.50
2022-09-20T17:44:12.553Z,80.20
2022-09-20T17:46:41.092Z,80.60
2022-09-20T17:49:10.735Z,80.90
2022-09-20T17:51:40.374Z,81.30
2022-09-20T17:54:08.376Z,81.50
2022-09-20T17:56:35.733Z,81.70
2022-09-20T17:59:04.030Z,82.00
2022-09-20T18:01:32.826Z,82.10
2022-09-20T18:04:00.972Z,82.30
2022-09-20T18:06:33.400Z,82.70
2022-09-20T18:09:02.765Z,83.00
2022-09-20T18:11:35.559Z,83.30
2022-09-20T18:14:05.536Z,83.30
2022-09-20T18:16:33.893Z,83.60
2022-09-20T18:19:01.273Z,84.20
2022-09-20T18:21:31.270Z,84.80
2022-09-20T18:23:59.065Z,85.20
2022-09-20T18:26:29.982Z,85.30
2022-09-20T18:29:05.719Z,86.10
2022-09-20T18:31:38.342Z,85.90
2022-09-20T18:34:07.645Z,86.10
2022-09-20T18:36:36.649Z,86.50
2022-09-20T18:39:03.633Z,86.60
2022-09-20T18:41:33.280Z,86.90
2022-09-20T18:44:01.308Z,87.10
2022-09-20T18:46:30.602Z,87.60
2022-09-20T18:48:59.990Z,87.30
2022-09-20T18:51:30.403Z,87.60
2022-09-20T18:53:58.174Z,88.10
2022-09-20T18:56:32.393Z,88.30
2022-09-20T18:59:03.772Z,88.20
2022-09-20T19:01:48.083Z,88.10
2022-09-20T19:04:45.723Z,88.10
2022-09-20T19:07:31.704Z,88.40
2022-09-20T19:10:17.140Z,88.30
2022-09-20T19:13:13.463Z,88.40
2022-09-20T19:16:17.124Z,88.60
2022-09-20T19:19:08.403Z,89.30
2022-09-20T19:22:06.306Z,89.40
2022-09-20T19:24:50.382Z,89.60
2022-09-20T19:27:17.182Z,90.20
2022-09-20T19:29:44.396Z,90.20
2022-09-20T19:32:21.154Z,90.20
2022-09-20T19:34:51.260Z,90.40
2022-09-20T19:37:31.051Z,90.60
2022-09-20T19:40:13.396Z,90.50
2022-09-20T19:42:55.158Z,90.60
2022-09-20T19:45:49.063Z,90.80
2022-09-20T19:48:24.383Z,90.90
2022-09-20T19:50:54.558Z,90.80
2022-09-20T19:53:24.125Z,90.90
2022-09-20T19:55:55.548Z,91.00
2022-09-20T19:58:23.461Z,91.00
2022-09-20T20:00:50.409Z,91.20
2022-09-20T20:03:23.696Z,91.40
2022-09-20T20:06:07.053Z,91.30
2022-09-20T20:08:41.968Z,91.30
2022-09-20T20:11:47.218Z,91.50
2022-09-20T20:14:36.917Z,92.00
2022-09-20T20:17:26.486Z,92.20
2022-09-20T20:20:17.195Z,92.40
2022-09-20T20:22:52.629Z,92.10
2022-09-20T20:25:32.916Z,92.40
2022-09-20T20:27:59.627Z,92.60
2022-09-20T20:30:26.514Z,92.60
2022-09-20T20:33:00.564Z,92.70
2022-09-20T20:35:27.168Z,92.90
2022-09-20T20:37:53.789Z,93.00
2022-09-20T20:40:20.528Z,92.90
2022-09-20T20:42:48.587Z,93.10
2022-09-20T20:45:15.516Z,93.20
2022-09-20T20:47:42.752Z,93.20
2022-09-20T20:50:11.770Z,93.00
2022-09-20T20:52:38.577Z,93.20
2022-09-20T20:55:06.311Z,93.20
2022-09-20T20:57:34.191Z,93.20
2022-09-20T21:00:00.840Z,93.20
2022-09-20T21:02:27.595Z,93.40
2022-09-20T21:04:54.266Z,93.50
2022-09-20T21:07:21.237Z,93.90
2022-09-20T21:09:47.827Z,94.10
2022-09-20T21:12:14.777Z,94.10
2022-09-20T21:14:41.481Z,94.20
2022-09-20T21:17:08.633Z,94.10
2022-09-20T21:19:35.215Z,93.80
2022-09-20T21:22:01.832Z,94.00
2022-09-20T21:24:28.490Z,94.10
2022-09-20T21:26:55.151Z,94.30
2022-09-20T21:29:21.772Z,94.30
2022-09-20T21:31:48.485Z,94.30
2022-09-20T21:34:16.223Z,94.20
2022-09-20T21:36:43.853Z,94.90
2022-09-20T21:39:10.620Z,94.20
2022-09-20T21:41:38.755Z,94.30
2022-09-20T21:44:07.253Z,94.40
2022-09-20T21:46:40.403Z,94.40
2022-09-20T21:49:09.807Z,94.70
2022-09-20T21:51:38.045Z,94.80
2022-09-20T21:54:05.515Z,94.80
2022-09-20T21:56:34.928Z,95.00
2022-09-20T21:59:03.921Z,94.80
2022-09-20T22:01:34.621Z,94.90
2022-09-20T22:04:05.506Z,94.90
2022-09-20T22:06:38.116Z,94.90
2022-09-20T22:09:07.240Z,94.70
2022-09-20T22:11:39.004Z,95.00
2022-09-20T22:14:06.510Z,94.90
2022-09-20T22:16:35.878Z,94.90
